Metar z połowy godziny Komunikat METAR ze strony awiacja.imgw.pl Metar G30 EPCE METAR EPCE 230800Z 11003KT 5000 BR NSC M07/M09 Q1009 RMK M070 086 0/0=